Aérodrome :
LOGIN :

S'inscrire | Disclaimer

   EN    FR    IT 

 










Légende :    VFR   VFR Marginal   IFR   IFR Intensif   IFR Très Intensif
Visi : 
Plafond : 
>= 8 km
>= 3000ft
5 à 8 km
1000 à 3000 ft
1500m à 5 km
500 à 1000 ft
800 à 1500m
200 à 500 ft
< 800m
< 200 ft
Symboles :   Orages  Brouillard  Fortes neiges  Fortes précipitations  Vent > 20 kt
SIGMETs :   Divers  Orages  Givrage  Turbulence  Onde Orograph.  Cendres Volcan.






- Altitude de l'aérodrome : 308 ft
- Code IATA : MHG


EDFM - Mannheim-City

DERNIER METAR :
  • 291220Z 11003KT 050V190 CAVOK 10/03 Q1014

METARs EXPIRÉS :
  • 291150Z VRB02KT CAVOK 10/04 Q1015
  • 291120Z VRB03KT CAVOK 09/03 Q1015
  • 291050Z 15004KT 100V200 CAVOK 09/03 Q1016
  • 291020Z 15005KT 090V200 CAVOK 08/03 Q1016
  • 290950Z 17006KT CAVOK 07/03 Q1016
  • 290920Z 17006KT 130V200 CAVOK 06/03 Q1017
  • 290850Z 17004KT 140V210 9000 NSC 06/03 Q1017
  • 290820Z 20003KT 8000 FEW012 04/02 Q1017
  • 290750Z 19003KT 160V220 8000 FEW012 04/02 Q1017

TAF TAF EDFM
Valide du 29 à 12h jusqu'au 29 à 21h UTC


291100Z 2912/2921 16005KT CAVOK
BECMG 2918/2921 VRB03KT



MET'MAP, la Météo Aéronautique d'un coup d'oeil ! - Copyright ORBIFLY Décembre 2007 - Disclaimer

ORBIFLY MET'MAP TEAM :

Programmation & Développement : Alexandra Zaïnal
Sur une idée originale de : Baudouin d'Aumeries
Soutien technique & logistique : Manuel Goepfert
Assistance : Marc-Olivier Méhu




SOURCES & CREDITS :

   NOAA